sensor_id;sensor_type;location;lat;lon;timestamp;P1;durP1;ratioP1;P2;durP2;ratioP2
11514;SDS011;5814;41.936;25.556;2024-02-26T00:02:15;35.40;;;33.23;;
11514;SDS011;5814;41.936;25.556;2024-02-26T00:04:41;37.20;;;35.03;;
11514;SDS011;5814;41.936;25.556;2024-02-26T00:07:06;23.67;;;22.10;;
11514;SDS011;5814;41.936;25.556;2024-02-26T00:09:32;28.77;;;26.90;;
11514;SDS011;5814;41.936;25.556;2024-02-26T00:12:01;22.00;;;20.33;;
11514;SDS011;5814;41.936;25.556;2024-02-26T00:14:26;13.60;;;12.47;;
11514;SDS011;5814;41.936;25.556;2024-02-26T00:16:52;20.73;;;19.50;;
11514;SDS011;5814;41.936;25.556;2024-02-26T00:19:17;34.33;;;32.20;;
11514;SDS011;5814;41.936;25.556;2024-02-26T00:21:43;28.97;;;27.10;;
11514;SDS011;5814;41.936;25.556;2024-02-26T00:24:08;22.43;;;21.10;;
11514;SDS011;5814;41.936;25.556;2024-02-26T00:26:34;22.43;;;20.67;;
11514;SDS011;5814;41.936;25.556;2024-02-26T00:28:59;27.40;;;25.20;;
11514;SDS011;5814;41.936;25.556;2024-02-26T00:31:24;34.80;;;31.43;;
11514;SDS011;5814;41.936;25.556;2024-02-26T00:33:50;26.17;;;23.93;;
11514;SDS011;5814;41.936;25.556;2024-02-26T00:36:16;32.00;;;29.23;;
11514;SDS011;5814;41.936;25.556;2024-02-26T00:38:43;36.93;;;34.43;;
11514;SDS011;5814;41.936;25.556;2024-02-26T00:41:10;19.37;;;17.60;;
11514;SDS011;5814;41.936;25.556;2024-02-26T00:43:35;28.97;;;26.47;;
11514;SDS011;5814;41.936;25.556;2024-02-26T00:46:03;28.10;;;25.83;;
11514;SDS011;5814;41.936;25.556;2024-02-26T00:48:28;31.63;;;29.33;;
11514;SDS011;5814;41.936;25.556;2024-02-26T00:50:54;32.67;;;30.47;;
11514;SDS011;5814;41.936;25.556;2024-02-26T00:53:19;29.00;;;26.83;;
11514;SDS011;5814;41.936;25.556;2024-02-26T00:55:45;32.73;;;30.23;;
11514;SDS011;5814;41.936;25.556;2024-02-26T00:58:10;24.57;;;22.43;;
11514;SDS011;5814;41.936;25.556;2024-02-26T01:00:36;29.87;;;27.73;;
11514;SDS011;5814;41.936;25.556;2024-02-26T01:03:01;28.60;;;26.30;;
11514;SDS011;5814;41.936;25.556;2024-02-26T01:05:28;18.10;;;16.80;;
11514;SDS011;5814;41.936;25.556;2024-02-26T01:07:54;23.10;;;21.33;;
11514;SDS011;5814;41.936;25.556;2024-02-26T01:10:19;30.03;;;27.63;;
11514;SDS011;5814;41.936;25.556;2024-02-26T01:12:45;29.57;;;27.10;;
11514;SDS011;5814;41.936;25.556;2024-02-26T01:15:10;21.90;;;19.70;;
11514;SDS011;5814;41.936;25.556;2024-02-26T01:17:36;22.23;;;20.33;;
11514;SDS011;5814;41.936;25.556;2024-02-26T01:20:01;33.60;;;31.27;;
11514;SDS011;5814;41.936;25.556;2024-02-26T01:22:27;34.73;;;32.07;;
11514;SDS011;5814;41.936;25.556;2024-02-26T01:24:52;38.70;;;36.00;;
11514;SDS011;5814;41.936;25.556;2024-02-26T01:27:18;18.40;;;17.00;;
11514;SDS011;5814;41.936;25.556;2024-02-26T01:29:43;35.20;;;32.80;;
11514;SDS011;5814;41.936;25.556;2024-02-26T01:32:10;32.30;;;30.20;;
11514;SDS011;5814;41.936;25.556;2024-02-26T01:34:35;33.07;;;30.93;;
11514;SDS011;5814;41.936;25.556;2024-02-26T01:37:02;44.23;;;41.33;;
11514;SDS011;5814;41.936;25.556;2024-02-26T01:39:27;36.73;;;34.10;;
11514;SDS011;5814;41.936;25.556;2024-02-26T01:41:55;30.83;;;28.60;;
11514;SDS011;5814;41.936;25.556;2024-02-26T01:44:21;33.37;;;30.87;;
11514;SDS011;5814;41.936;25.556;2024-02-26T01:46:46;32.73;;;30.70;;
11514;SDS011;5814;41.936;25.556;2024-02-26T01:49:13;48.50;;;44.43;;
11514;SDS011;5814;41.936;25.556;2024-02-26T01:51:39;28.47;;;26.63;;
11514;SDS011;5814;41.936;25.556;2024-02-26T01:54:06;24.00;;;22.20;;
11514;SDS011;5814;41.936;25.556;2024-02-26T01:56:33;31.13;;;29.20;;
11514;SDS011;5814;41.936;25.556;2024-02-26T01:59:00;27.77;;;25.77;;
11514;SDS011;5814;41.936;25.556;2024-02-26T02:01:27;20.97;;;19.60;;
11514;SDS011;5814;41.936;25.556;2024-02-26T02:03:54;28.87;;;27.00;;
11514;SDS011;5814;41.936;25.556;2024-02-26T02:06:22;34.77;;;32.57;;
11514;SDS011;5814;41.936;25.556;2024-02-26T02:08:48;30.57;;;28.27;;
11514;SDS011;5814;41.936;25.556;2024-02-26T02:11:14;30.50;;;28.47;;
11514;SDS011;5814;41.936;25.556;2024-02-26T02:13:40;29.37;;;27.33;;
11514;SDS011;5814;41.936;25.556;2024-02-26T02:16:05;31.33;;;29.43;;
11514;SDS011;5814;41.936;25.556;2024-02-26T02:18:32;26.67;;;25.07;;
11514;SDS011;5814;41.936;25.556;2024-02-26T02:20:59;27.20;;;25.53;;
11514;SDS011;5814;41.936;25.556;2024-02-26T02:23:25;30.13;;;28.40;;
11514;SDS011;5814;41.936;25.556;2024-02-26T02:25:51;36.43;;;34.23;;
11514;SDS011;5814;41.936;25.556;2024-02-26T02:28:17;35.67;;;33.47;;
11514;SDS011;5814;41.936;25.556;2024-02-26T02:30:43;36.50;;;34.47;;
11514;SDS011;5814;41.936;25.556;2024-02-26T02:33:09;33.43;;;31.07;;
11514;SDS011;5814;41.936;25.556;2024-02-26T02:35:36;31.43;;;29.47;;
11514;SDS011;5814;41.936;25.556;2024-02-26T02:38:02;26.30;;;24.67;;
11514;SDS011;5814;41.936;25.556;2024-02-26T02:40:28;34.80;;;32.50;;
11514;SDS011;5814;41.936;25.556;2024-02-26T02:42:53;24.13;;;22.33;;
11514;SDS011;5814;41.936;25.556;2024-02-26T02:45:19;26.10;;;24.53;;
11514;SDS011;5814;41.936;25.556;2024-02-26T02:47:44;33.03;;;31.03;;
11514;SDS011;5814;41.936;25.556;2024-02-26T02:50:09;35.17;;;32.87;;
11514;SDS011;5814;41.936;25.556;2024-02-26T02:52:35;24.13;;;22.43;;
11514;SDS011;5814;41.936;25.556;2024-02-26T02:55:00;25.27;;;23.57;;
11514;SDS011;5814;41.936;25.556;2024-02-26T02:57:26;29.57;;;27.57;;
11514;SDS011;5814;41.936;25.556;2024-02-26T02:59:52;26.33;;;24.53;;
11514;SDS011;5814;41.936;25.556;2024-02-26T03:02:17;31.77;;;29.67;;
11514;SDS011;5814;41.936;25.556;2024-02-26T03:04:42;30.73;;;28.67;;
11514;SDS011;5814;41.936;25.556;2024-02-26T03:07:08;41.30;;;38.50;;
11514;SDS011;5814;41.936;25.556;2024-02-26T03:09:33;35.47;;;33.03;;
11514;SDS011;5814;41.936;25.556;2024-02-26T03:11:59;54.63;;;50.93;;
11514;SDS011;5814;41.936;25.556;2024-02-26T03:14:24;36.90;;;34.07;;
11514;SDS011;5814;41.936;25.556;2024-02-26T03:16:53;29.43;;;27.43;;
11514;SDS011;5814;41.936;25.556;2024-02-26T03:19:19;33.30;;;30.87;;
11514;SDS011;5814;41.936;25.556;2024-02-26T03:21:44;33.20;;;30.87;;
11514;SDS011;5814;41.936;25.556;2024-02-26T03:24:10;42.07;;;38.87;;
11514;SDS011;5814;41.936;25.556;2024-02-26T03:26:37;37.33;;;34.60;;
11514;SDS011;5814;41.936;25.556;2024-02-26T03:29:03;31.10;;;29.10;;
11514;SDS011;5814;41.936;25.556;2024-02-26T03:31:29;26.17;;;24.37;;
11514;SDS011;5814;41.936;25.556;2024-02-26T03:33:55;33.60;;;31.23;;
11514;SDS011;5814;41.936;25.556;2024-02-26T03:36:21;36.17;;;33.77;;
11514;SDS011;5814;41.936;25.556;2024-02-26T03:38:47;35.70;;;32.67;;
11514;SDS011;5814;41.936;25.556;2024-02-26T03:41:13;32.20;;;30.10;;
11514;SDS011;5814;41.936;25.556;2024-02-26T03:43:38;28.20;;;26.07;;
11514;SDS011;5814;41.936;25.556;2024-02-26T03:46:06;27.13;;;25.17;;
11514;SDS011;5814;41.936;25.556;2024-02-26T03:48:32;38.57;;;36.20;;
11514;SDS011;5814;41.936;25.556;2024-02-26T03:50:58;23.10;;;21.23;;
11514;SDS011;5814;41.936;25.556;2024-02-26T03:53:23;20.83;;;19.00;;
11514;SDS011;5814;41.936;25.556;2024-02-26T03:55:48;31.27;;;29.07;;
11514;SDS011;5814;41.936;25.556;2024-02-26T03:58:17;18.97;;;17.33;;
11514;SDS011;5814;41.936;25.556;2024-02-26T04:00:42;21.90;;;19.87;;
11514;SDS011;5814;41.936;25.556;2024-02-26T04:03:08;48.20;;;45.17;;
11514;SDS011;5814;41.936;25.556;2024-02-26T04:05:33;28.53;;;26.40;;
11514;SDS011;5814;41.936;25.556;2024-02-26T04:07:58;30.90;;;28.87;;
11514;SDS011;5814;41.936;25.556;2024-02-26T04:10:24;32.07;;;29.60;;
11514;SDS011;5814;41.936;25.556;2024-02-26T04:12:49;38.93;;;36.03;;
11514;SDS011;5814;41.936;25.556;2024-02-26T04:15:15;33.47;;;31.10;;
11514;SDS011;5814;41.936;25.556;2024-02-26T04:17:40;20.40;;;18.73;;
11514;SDS011;5814;41.936;25.556;2024-02-26T04:20:06;23.07;;;21.20;;
11514;SDS011;5814;41.936;25.556;2024-02-26T04:22:32;38.50;;;35.63;;
11514;SDS011;5814;41.936;25.556;2024-02-26T04:24:58;48.67;;;45.23;;
11514;SDS011;5814;41.936;25.556;2024-02-26T04:27:23;39.17;;;36.60;;
11514;SDS011;5814;41.936;25.556;2024-02-26T04:29:49;39.50;;;36.73;;
11514;SDS011;5814;41.936;25.556;2024-02-26T04:32:14;40.77;;;38.30;;
11514;SDS011;5814;41.936;25.556;2024-02-26T04:34:40;35.93;;;33.27;;
11514;SDS011;5814;41.936;25.556;2024-02-26T04:37:07;38.07;;;35.50;;
11514;SDS011;5814;41.936;25.556;2024-02-26T04:39:32;61.50;;;56.83;;
11514;SDS011;5814;41.936;25.556;2024-02-26T04:41:58;36.37;;;33.93;;
11514;SDS011;5814;41.936;25.556;2024-02-26T04:44:23;33.00;;;30.93;;
11514;SDS011;5814;41.936;25.556;2024-02-26T04:46:48;35.27;;;32.93;;
11514;SDS011;5814;41.936;25.556;2024-02-26T04:49:14;38.13;;;35.57;;
11514;SDS011;5814;41.936;25.556;2024-02-26T04:51:39;34.70;;;32.17;;
11514;SDS011;5814;41.936;25.556;2024-02-26T04:54:05;53.47;;;50.03;;
11514;SDS011;5814;41.936;25.556;2024-02-26T04:56:30;39.90;;;37.13;;
11514;SDS011;5814;41.936;25.556;2024-02-26T04:58:56;56.17;;;52.43;;
11514;SDS011;5814;41.936;25.556;2024-02-26T05:01:21;44.13;;;40.97;;
11514;SDS011;5814;41.936;25.556;2024-02-26T05:03:47;58.43;;;53.83;;
11514;SDS011;5814;41.936;25.556;2024-02-26T05:06:12;35.93;;;32.83;;
11514;SDS011;5814;41.936;25.556;2024-02-26T05:08:38;30.03;;;27.77;;
11514;SDS011;5814;41.936;25.556;2024-02-26T05:11:04;31.40;;;28.50;;
11514;SDS011;5814;41.936;25.556;2024-02-26T05:13:30;47.67;;;43.87;;
11514;SDS011;5814;41.936;25.556;2024-02-26T05:15:55;47.63;;;44.20;;
11514;SDS011;5814;41.936;25.556;2024-02-26T05:18:21;39.23;;;36.50;;
11514;SDS011;5814;41.936;25.556;2024-02-26T05:20:47;50.23;;;46.67;;
11514;SDS011;5814;41.936;25.556;2024-02-26T05:23:13;34.73;;;31.83;;
11514;SDS011;5814;41.936;25.556;2024-02-26T05:25:38;30.17;;;27.93;;
11514;SDS011;5814;41.936;25.556;2024-02-26T05:28:04;44.30;;;40.83;;
11514;SDS011;5814;41.936;25.556;2024-02-26T05:30:29;49.13;;;44.90;;
11514;SDS011;5814;41.936;25.556;2024-02-26T05:32:55;31.03;;;28.63;;
11514;SDS011;5814;41.936;25.556;2024-02-26T05:35:20;50.93;;;47.33;;
11514;SDS011;5814;41.936;25.556;2024-02-26T05:37:46;47.30;;;43.97;;
11514;SDS011;5814;41.936;25.556;2024-02-26T05:40:11;30.87;;;28.67;;
11514;SDS011;5814;41.936;25.556;2024-02-26T05:42:37;28.53;;;26.30;;
11514;SDS011;5814;41.936;25.556;2024-02-26T05:45:03;46.03;;;42.63;;
11514;SDS011;5814;41.936;25.556;2024-02-26T05:47:32;37.07;;;33.53;;
11514;SDS011;5814;41.936;25.556;2024-02-26T05:49:58;33.47;;;30.90;;
11514;SDS011;5814;41.936;25.556;2024-02-26T05:52:25;28.87;;;26.77;;
11514;SDS011;5814;41.936;25.556;2024-02-26T05:54:51;23.30;;;21.37;;
11514;SDS011;5814;41.936;25.556;2024-02-26T05:57:17;26.67;;;24.50;;
11514;SDS011;5814;41.936;25.556;2024-02-26T05:59:43;23.33;;;21.53;;
11514;SDS011;5814;41.936;25.556;2024-02-26T06:02:09;25.27;;;22.80;;
11514;SDS011;5814;41.936;25.556;2024-02-26T06:04:35;33.00;;;30.13;;
11514;SDS011;5814;41.936;25.556;2024-02-26T06:07:00;25.20;;;23.07;;
11514;SDS011;5814;41.936;25.556;2024-02-26T06:09:26;36.97;;;33.33;;
11514;SDS011;5814;41.936;25.556;2024-02-26T06:11:51;41.67;;;37.80;;
11514;SDS011;5814;41.936;25.556;2024-02-26T06:14:17;37.93;;;34.87;;
11514;SDS011;5814;41.936;25.556;2024-02-26T06:16:44;29.37;;;26.77;;
11514;SDS011;5814;41.936;25.556;2024-02-26T06:19:09;33.87;;;30.67;;
11514;SDS011;5814;41.936;25.556;2024-02-26T06:21:35;29.53;;;26.90;;
11514;SDS011;5814;41.936;25.556;2024-02-26T06:24:01;33.63;;;30.60;;
11514;SDS011;5814;41.936;25.556;2024-02-26T06:26:26;29.30;;;26.73;;
11514;SDS011;5814;41.936;25.556;2024-02-26T06:28:54;21.60;;;19.63;;
11514;SDS011;5814;41.936;25.556;2024-02-26T06:31:21;21.67;;;19.87;;
11514;SDS011;5814;41.936;25.556;2024-02-26T06:33:48;21.40;;;19.70;;
11514;SDS011;5814;41.936;25.556;2024-02-26T06:36:15;22.37;;;20.37;;
11514;SDS011;5814;41.936;25.556;2024-02-26T06:38:41;20.53;;;18.80;;
11514;SDS011;5814;41.936;25.556;2024-02-26T06:41:06;20.87;;;19.20;;
11514;SDS011;5814;41.936;25.556;2024-02-26T06:43:32;21.20;;;19.47;;
11514;SDS011;5814;41.936;25.556;2024-02-26T06:45:57;20.07;;;18.43;;
11514;SDS011;5814;41.936;25.556;2024-02-26T06:48:24;20.27;;;18.40;;
11514;SDS011;5814;41.936;25.556;2024-02-26T06:50:50;22.53;;;20.60;;
11514;SDS011;5814;41.936;25.556;2024-02-26T06:53:15;27.53;;;21.60;;
11514;SDS011;5814;41.936;25.556;2024-02-26T06:55:41;22.27;;;20.23;;
11514;SDS011;5814;41.936;25.556;2024-02-26T06:58:07;22.43;;;20.80;;
11514;SDS011;5814;41.936;25.556;2024-02-26T07:00:33;23.97;;;21.83;;
11514;SDS011;5814;41.936;25.556;2024-02-26T07:02:59;23.27;;;21.38;;
11514;SDS011;5814;41.936;25.556;2024-02-26T07:05:24;21.70;;;19.83;;
11514;SDS011;5814;41.936;25.556;2024-02-26T07:07:50;21.20;;;19.40;;
11514;SDS011;5814;41.936;25.556;2024-02-26T07:10:15;24.77;;;22.20;;
11514;SDS011;5814;41.936;25.556;2024-02-26T07:12:41;22.88;;;20.88;;
11514;SDS011;5814;41.936;25.556;2024-02-26T07:15:06;25.50;;;22.83;;
11514;SDS011;5814;41.936;25.556;2024-02-26T07:17:33;27.80;;;25.02;;
11514;SDS011;5814;41.936;25.556;2024-02-26T07:19:59;24.70;;;22.38;;
11514;SDS011;5814;41.936;25.556;2024-02-26T07:22:24;35.75;;;30.15;;
11514;SDS011;5814;41.936;25.556;2024-02-26T07:24:50;26.42;;;23.73;;
11514;SDS011;5814;41.936;25.556;2024-02-26T07:27:16;27.02;;;24.38;;
11514;SDS011;5814;41.936;25.556;2024-02-26T07:29:43;33.63;;;26.42;;
11514;SDS011;5814;41.936;25.556;2024-02-26T07:32:09;28.50;;;25.35;;
11514;SDS011;5814;41.936;25.556;2024-02-26T07:34:35;29.58;;;26.42;;
11514;SDS011;5814;41.936;25.556;2024-02-26T07:37:02;33.13;;;27.23;;
11514;SDS011;5814;41.936;25.556;2024-02-26T07:39:28;23.85;;;21.60;;
11514;SDS011;5814;41.936;25.556;2024-02-26T07:41:53;23.92;;;21.73;;
11514;SDS011;5814;41.936;25.556;2024-02-26T07:44:19;26.77;;;21.88;;
11514;SDS011;5814;41.936;25.556;2024-02-26T07:46:44;24.13;;;21.55;;
11514;SDS011;5814;41.936;25.556;2024-02-26T07:49:10;22.55;;;20.60;;
11514;SDS011;5814;41.936;25.556;2024-02-26T07:51:35;21.70;;;19.80;;
11514;SDS011;5814;41.936;25.556;2024-02-26T07:54:01;22.33;;;20.08;;
11514;SDS011;5814;41.936;25.556;2024-02-26T07:56:27;19.52;;;17.60;;
11514;SDS011;5814;41.936;25.556;2024-02-26T07:58:52;20.73;;;18.60;;
11514;SDS011;5814;41.936;25.556;2024-02-26T08:01:18;17.08;;;15.38;;
11514;SDS011;5814;41.936;25.556;2024-02-26T08:03:43;16.48;;;15.18;;
11514;SDS011;5814;41.936;25.556;2024-02-26T08:06:09;16.60;;;15.20;;
11514;SDS011;5814;41.936;25.556;2024-02-26T08:08:35;19.50;;;16.20;;
11514;SDS011;5814;41.936;25.556;2024-02-26T08:11:00;23.60;;;21.50;;
11514;SDS011;5814;41.936;25.556;2024-02-26T08:13:25;16.25;;;14.85;;
11514;SDS011;5814;41.936;25.556;2024-02-26T08:15:51;17.02;;;15.73;;
11514;SDS011;5814;41.936;25.556;2024-02-26T08:18:17;20.02;;;18.52;;
11514;SDS011;5814;41.936;25.556;2024-02-26T08:20:44;18.95;;;17.42;;
11514;SDS011;5814;41.936;25.556;2024-02-26T08:23:09;21.33;;;19.40;;
11514;SDS011;5814;41.936;25.556;2024-02-26T08:25:35;20.15;;;18.33;;
11514;SDS011;5814;41.936;25.556;2024-02-26T08:28:00;19.92;;;18.27;;
11514;SDS011;5814;41.936;25.556;2024-02-26T08:30:26;21.25;;;19.42;;
11514;SDS011;5814;41.936;25.556;2024-02-26T08:32:51;18.55;;;16.88;;
11514;SDS011;5814;41.936;25.556;2024-02-26T08:35:18;18.98;;;17.58;;
11514;SDS011;5814;41.936;25.556;2024-02-26T08:37:44;17.23;;;15.82;;
11514;SDS011;5814;41.936;25.556;2024-02-26T08:40:10;17.65;;;16.35;;
11514;SDS011;5814;41.936;25.556;2024-02-26T08:42:36;18.58;;;17.02;;
11514;SDS011;5814;41.936;25.556;2024-02-26T08:45:02;17.85;;;16.55;;
11514;SDS011;5814;41.936;25.556;2024-02-26T08:47:28;17.77;;;16.10;;
11514;SDS011;5814;41.936;25.556;2024-02-26T08:49:53;18.10;;;16.42;;
11514;SDS011;5814;41.936;25.556;2024-02-26T08:52:19;19.20;;;17.70;;
11514;SDS011;5814;41.936;25.556;2024-02-26T08:54:44;19.08;;;17.48;;
11514;SDS011;5814;41.936;25.556;2024-02-26T08:57:10;19.42;;;17.58;;
11514;SDS011;5814;41.936;25.556;2024-02-26T08:59:35;17.35;;;16.08;;
11514;SDS011;5814;41.936;25.556;2024-02-26T09:02:01;19.30;;;17.58;;
11514;SDS011;5814;41.936;25.556;2024-02-26T09:04:26;17.95;;;16.42;;
11514;SDS011;5814;41.936;25.556;2024-02-26T09:06:52;15.88;;;14.63;;
11514;SDS011;5814;41.936;25.556;2024-02-26T09:09:18;18.42;;;16.02;;
11514;SDS011;5814;41.936;25.556;2024-02-26T09:11:43;18.63;;;16.95;;
11514;SDS011;5814;41.936;25.556;2024-02-26T09:14:09;18.88;;;16.95;;
11514;SDS011;5814;41.936;25.556;2024-02-26T09:16:34;19.40;;;17.60;;
11514;SDS011;5814;41.936;25.556;2024-02-26T09:19:01;16.25;;;14.73;;
11514;SDS011;5814;41.936;25.556;2024-02-26T09:21:28;15.98;;;14.75;;
11514;SDS011;5814;41.936;25.556;2024-02-26T09:23:53;16.75;;;15.18;;
11514;SDS011;5814;41.936;25.556;2024-02-26T09:26:19;15.85;;;14.65;;
11514;SDS011;5814;41.936;25.556;2024-02-26T09:28:45;15.80;;;14.40;;
11514;SDS011;5814;41.936;25.556;2024-02-26T09:31:10;16.92;;;15.27;;
11514;SDS011;5814;41.936;25.556;2024-02-26T09:33:36;15.63;;;14.32;;
11514;SDS011;5814;41.936;25.556;2024-02-26T09:36:02;15.30;;;14.10;;
11514;SDS011;5814;41.936;25.556;2024-02-26T09:38:29;19.05;;;17.52;;
11514;SDS011;5814;41.936;25.556;2024-02-26T09:40:58;18.30;;;16.77;;
11514;SDS011;5814;41.936;25.556;2024-02-26T09:43:24;18.60;;;17.23;;
11514;SDS011;5814;41.936;25.556;2024-02-26T09:45:56;16.73;;;15.43;;
11514;SDS011;5814;41.936;25.556;2024-02-26T09:48:22;16.42;;;15.20;;
11514;SDS011;5814;41.936;25.556;2024-02-26T09:50:48;17.63;;;15.73;;
11514;SDS011;5814;41.936;25.556;2024-02-26T09:53:14;18.00;;;16.52;;
11514;SDS011;5814;41.936;25.556;2024-02-26T09:55:40;16.48;;;15.18;;
11514;SDS011;5814;41.936;25.556;2024-02-26T09:58:06;16.27;;;15.18;;
11514;SDS011;5814;41.936;25.556;2024-02-26T10:00:32;18.88;;;16.98;;
11514;SDS011;5814;41.936;25.556;2024-02-26T10:03:06;17.98;;;16.50;;
11514;SDS011;5814;41.936;25.556;2024-02-26T10:05:38;15.35;;;13.90;;
11514;SDS011;5814;41.936;25.556;2024-02-26T10:08:05;14.98;;;13.70;;
11514;SDS011;5814;41.936;25.556;2024-02-26T10:10:33;15.32;;;13.90;;
11514;SDS011;5814;41.936;25.556;2024-02-26T10:13:02;14.02;;;12.80;;
11514;SDS011;5814;41.936;25.556;2024-02-26T10:15:34;15.55;;;14.35;;
11514;SDS011;5814;41.936;25.556;2024-02-26T10:18:00;18.90;;;17.05;;
11514;SDS011;5814;41.936;25.556;2024-02-26T10:20:28;14.23;;;12.95;;
11514;SDS011;5814;41.936;25.556;2024-02-26T10:22:53;12.65;;;11.63;;
11514;SDS011;5814;41.936;25.556;2024-02-26T10:25:19;16.95;;;15.30;;
11514;SDS011;5814;41.936;25.556;2024-02-26T10:27:45;14.02;;;12.95;;
11514;SDS011;5814;41.936;25.556;2024-02-26T10:30:21;15.27;;;13.73;;
11514;SDS011;5814;41.936;25.556;2024-02-26T10:32:48;16.60;;;15.20;;
11514;SDS011;5814;41.936;25.556;2024-02-26T10:35:18;13.63;;;12.60;;
11514;SDS011;5814;41.936;25.556;2024-02-26T10:37:46;13.25;;;12.15;;
11514;SDS011;5814;41.936;25.556;2024-02-26T10:40:12;18.08;;;16.35;;
11514;SDS011;5814;41.936;25.556;2024-02-26T10:42:39;25.60;;;23.30;;
11514;SDS011;5814;41.936;25.556;2024-02-26T10:45:05;24.75;;;22.63;;
11514;SDS011;5814;41.936;25.556;2024-02-26T10:47:35;15.57;;;13.90;;
11514;SDS011;5814;41.936;25.556;2024-02-26T10:50:05;23.55;;;21.80;;
11514;SDS011;5814;41.936;25.556;2024-02-26T10:52:32;15.70;;;14.45;;
11514;SDS011;5814;41.936;25.556;2024-02-26T10:55:02;12.15;;;10.85;;
11514;SDS011;5814;41.936;25.556;2024-02-26T10:57:29;14.18;;;12.95;;
11514;SDS011;5814;41.936;25.556;2024-02-26T10:59:58;14.35;;;13.15;;
11514;SDS011;5814;41.936;25.556;2024-02-26T11:02:25;10.93;;;10.15;;
11514;SDS011;5814;41.936;25.556;2024-02-26T11:04:51;16.00;;;13.63;;
11514;SDS011;5814;41.936;25.556;2024-02-26T11:07:16;14.13;;;10.30;;
11514;SDS011;5814;41.936;25.556;2024-02-26T11:09:44;14.50;;;13.40;;
11514;SDS011;5814;41.936;25.556;2024-02-26T11:12:17;16.20;;;14.38;;
11514;SDS011;5814;41.936;25.556;2024-02-26T11:14:44;14.30;;;12.93;;
11514;SDS011;5814;41.936;25.556;2024-02-26T11:17:11;15.38;;;13.98;;
11514;SDS011;5814;41.936;25.556;2024-02-26T11:19:38;14.52;;;13.27;;
11514;SDS011;5814;41.936;25.556;2024-02-26T11:22:06;14.90;;;13.60;;
11514;SDS011;5814;41.936;25.556;2024-02-26T11:24:32;13.93;;;12.43;;
11514;SDS011;5814;41.936;25.556;2024-02-26T11:26:58;10.48;;;9.57;;
11514;SDS011;5814;41.936;25.556;2024-02-26T11:29:29;10.60;;;9.50;;
11514;SDS011;5814;41.936;25.556;2024-02-26T11:32:00;14.35;;;12.73;;
11514;SDS011;5814;41.936;25.556;2024-02-26T11:34:26;11.65;;;10.73;;
11514;SDS011;5814;41.936;25.556;2024-02-26T11:36:52;12.40;;;11.23;;
11514;SDS011;5814;41.936;25.556;2024-02-26T11:39:18;10.40;;;9.48;;
11514;SDS011;5814;41.936;25.556;2024-02-26T11:41:44;9.90;;;9.00;;
11514;SDS011;5814;41.936;25.556;2024-02-26T11:44:10;9.88;;;9.07;;
11514;SDS011;5814;41.936;25.556;2024-02-26T11:46:39;9.90;;;8.98;;
11514;SDS011;5814;41.936;25.556;2024-02-26T11:51:54;9.32;;;8.63;;
11514;SDS011;5814;41.936;25.556;2024-02-26T11:57:22;11.00;;;9.98;;
11514;SDS011;5814;41.936;25.556;2024-02-26T11:59:54;10.15;;;9.20;;
11514;SDS011;5814;41.936;25.556;2024-02-26T12:05:30;9.43;;;8.63;;
11514;SDS011;5814;41.936;25.556;2024-02-26T12:08:04;11.35;;;10.30;;
11514;SDS011;5814;41.936;25.556;2024-02-26T12:10:38;11.32;;;10.32;;
11514;SDS011;5814;41.936;25.556;2024-02-26T12:15:31;11.93;;;10.93;;
11514;SDS011;5814;41.936;25.556;2024-02-26T12:18:00;11.80;;;10.73;;
11514;SDS011;5814;41.936;25.556;2024-02-26T12:20:27;10.98;;;10.05;;
11514;SDS011;5814;41.936;25.556;2024-02-26T12:22:52;12.23;;;9.43;;
11514;SDS011;5814;41.936;25.556;2024-02-26T12:25:27;11.80;;;10.38;;
11514;SDS011;5814;41.936;25.556;2024-02-26T12:27:54;9.38;;;8.63;;
11514;SDS011;5814;41.936;25.556;2024-02-26T12:30:20;9.45;;;8.63;;
11514;SDS011;5814;41.936;25.556;2024-02-26T12:32:49;9.68;;;8.85;;
11514;SDS011;5814;41.936;25.556;2024-02-26T12:35:16;10.65;;;9.73;;
11514;SDS011;5814;41.936;25.556;2024-02-26T12:37:42;9.70;;;9.00;;
11514;SDS011;5814;41.936;25.556;2024-02-26T12:40:08;10.20;;;9.10;;
11514;SDS011;5814;41.936;25.556;2024-02-26T12:42:38;9.20;;;8.60;;
11514;SDS011;5814;41.936;25.556;2024-02-26T12:45:08;9.35;;;8.75;;
11514;SDS011;5814;41.936;25.556;2024-02-26T12:50:02;10.45;;;9.65;;
11514;SDS011;5814;41.936;25.556;2024-02-26T12:52:29;9.93;;;9.13;;
11514;SDS011;5814;41.936;25.556;2024-02-26T12:54:58;10.55;;;9.55;;
11514;SDS011;5814;41.936;25.556;2024-02-26T12:57:25;10.93;;;10.02;;
11514;SDS011;5814;41.936;25.556;2024-02-26T12:59:52;11.30;;;10.30;;
11514;SDS011;5814;41.936;25.556;2024-02-26T13:02:18;12.38;;;10.23;;
11514;SDS011;5814;41.936;25.556;2024-02-26T13:04:43;10.77;;;9.80;;
11514;SDS011;5814;41.936;25.556;2024-02-26T13:07:10;12.43;;;10.93;;
11514;SDS011;5814;41.936;25.556;2024-02-26T13:09:35;12.20;;;11.25;;
11514;SDS011;5814;41.936;25.556;2024-02-26T13:12:03;10.68;;;9.77;;
11514;SDS011;5814;41.936;25.556;2024-02-26T13:14:30;11.10;;;10.18;;
11514;SDS011;5814;41.936;25.556;2024-02-26T13:16:57;10.57;;;9.63;;
11514;SDS011;5814;41.936;25.556;2024-02-26T13:19:23;11.27;;;10.32;;
11514;SDS011;5814;41.936;25.556;2024-02-26T13:21:49;11.23;;;10.32;;
11514;SDS011;5814;41.936;25.556;2024-02-26T13:24:15;10.15;;;9.32;;
11514;SDS011;5814;41.936;25.556;2024-02-26T13:26:41;9.50;;;8.70;;
11514;SDS011;5814;41.936;25.556;2024-02-26T13:29:07;9.88;;;8.98;;
11514;SDS011;5814;41.936;25.556;2024-02-26T13:31:38;10.18;;;9.27;;
11514;SDS011;5814;41.936;25.556;2024-02-26T13:34:05;11.95;;;10.75;;
11514;SDS011;5814;41.936;25.556;2024-02-26T13:36:31;10.75;;;9.85;;
11514;SDS011;5814;41.936;25.556;2024-02-26T13:38:56;11.55;;;10.40;;
11514;SDS011;5814;41.936;25.556;2024-02-26T13:41:22;12.95;;;11.60;;
11514;SDS011;5814;41.936;25.556;2024-02-26T13:43:48;13.95;;;12.60;;
11514;SDS011;5814;41.936;25.556;2024-02-26T13:46:14;13.43;;;12.00;;
11514;SDS011;5814;41.936;25.556;2024-02-26T13:48:41;10.20;;;9.38;;
11514;SDS011;5814;41.936;25.556;2024-02-26T13:51:07;11.68;;;10.45;;
11514;SDS011;5814;41.936;25.556;2024-02-26T13:53:32;13.10;;;11.90;;
11514;SDS011;5814;41.936;25.556;2024-02-26T13:55:58;10.93;;;10.02;;
11514;SDS011;5814;41.936;25.556;2024-02-26T13:58:26;11.80;;;10.63;;
11514;SDS011;5814;41.936;25.556;2024-02-26T14:00:52;11.38;;;10.40;;
11514;SDS011;5814;41.936;25.556;2024-02-26T14:03:19;11.77;;;10.85;;
11514;SDS011;5814;41.936;25.556;2024-02-26T14:05:45;11.20;;;10.38;;
11514;SDS011;5814;41.936;25.556;2024-02-26T14:08:11;10.93;;;10.13;;
11514;SDS011;5814;41.936;25.556;2024-02-26T14:10:36;12.02;;;10.43;;
11514;SDS011;5814;41.936;25.556;2024-02-26T14:13:02;11.57;;;10.43;;
11514;SDS011;5814;41.936;25.556;2024-02-26T14:15:28;11.35;;;10.15;;
11514;SDS011;5814;41.936;25.556;2024-02-26T14:17:54;10.85;;;10.13;;
11514;SDS011;5814;41.936;25.556;2024-02-26T14:20:22;10.90;;;9.90;;
11514;SDS011;5814;41.936;25.556;2024-02-26T14:22:49;11.75;;;10.65;;
11514;SDS011;5814;41.936;25.556;2024-02-26T14:25:17;11.18;;;10.05;;
11514;SDS011;5814;41.936;25.556;2024-02-26T14:27:43;10.88;;;9.85;;
11514;SDS011;5814;41.936;25.556;2024-02-26T14:30:08;10.93;;;9.00;;
11514;SDS011;5814;41.936;25.556;2024-02-26T14:32:34;10.98;;;9.88;;